Bebe, Texas
Current Conditions -  °F | °C
As of 2:35 PM on Friday 21 Nov 2014 (Local Time) from KT20 Reporting Station
Overcast Overcast  
Wind Chill: 75°   Ceiling: 3900
Heat Index: 75°   Visibility: 10mi
Dew Point: 71°   Wind: 9mph
Humidity: 88%   Direction: 170°S
Pressure: 30.01"   Gusts: NA
Location:  29.41°N, 97.64°W
Report Text: KT20 212035Z AUTO 17008KT 10SM SCT013 BKN039 OVC060 24/22 A3001 RMK AO2 T02380217
Loading
Personal Weather Stations






























Interactive Weather Map New forecast layout! Learn more

10-Day Weather Forecast

Advertisements
Track Severe Weather on mobile